createdAt,value
2018-10-17T06:24:44.090Z,954.08
2018-10-17T06:25:44.848Z,954.13
2018-10-17T07:19:32.539Z,954.24
2018-10-17T07:28:20.318Z,954.19
2018-10-17T07:30:56.880Z,954.18
2018-10-17T07:31:55.304Z,954.21
2018-10-17T07:35:42.893Z,954.18
2018-10-17T07:36:34.704Z,954.17
2018-10-17T07:45:46.574Z,954.16
2018-10-17T07:47:06.497Z,954.16
2018-10-17T07:47:45.410Z,954.18
2018-10-17T07:50:57.472Z,954.18
2018-10-17T07:51:37.453Z,954.22
2018-10-17T07:52:36.621Z,954.19
2018-10-17T07:59:17.331Z,954.21
2018-10-17T08:00:17.385Z,954.22
2018-10-17T08:01:18.514Z,954.20
2018-10-17T08:02:19.573Z,954.19
2018-10-17T08:03:24.952Z,954.22
2018-10-17T08:04:17.800Z,954.19
2018-10-17T08:05:18.520Z,954.20
2018-10-17T08:06:18.236Z,954.21
2018-10-17T08:07:19.520Z,954.26
2018-10-17T08:08:16.817Z,954.27
2018-10-17T08:09:19.477Z,954.24
2018-10-17T08:10:39.086Z,954.27
2018-10-17T08:11:16.675Z,954.24
2018-10-17T08:14:28.302Z,954.21
2018-10-17T08:15:03.471Z,954.23
2018-10-17T08:16:04.192Z,954.26
2018-10-17T08:17:03.352Z,954.27
2018-10-17T08:18:05.354Z,954.22
2018-10-17T08:19:06.248Z,954.22
2018-10-17T08:20:04.570Z,954.20
2018-10-17T08:21:03.920Z,954.23
2018-10-17T08:32:27.032Z,954.21
2018-10-17T08:34:48.039Z,954.24
2018-10-17T08:35:51.339Z,954.20
2018-10-17T08:36:46.556Z,954.22
2018-10-17T08:37:51.007Z,954.23
2018-10-17T08:38:47.591Z,954.22
2018-10-17T08:39:47.051Z,954.21
2018-10-17T08:40:48.534Z,954.18
2018-10-17T08:41:47.288Z,954.20
2018-10-17T08:42:46.032Z,954.20
2018-10-17T08:43:47.095Z,954.23
2018-10-17T08:44:45.999Z,954.20
2018-10-17T08:45:47.594Z,954.23
2018-10-17T08:46:45.869Z,954.23
2018-10-17T08:47:45.974Z,954.21
2018-10-17T08:48:46.926Z,954.23
2018-10-17T08:49:48.794Z,954.22
2018-10-17T08:50:46.965Z,954.25
2018-10-17T08:51:47.500Z,954.26
2018-10-17T08:52:46.849Z,954.24
2018-10-17T08:53:45.808Z,954.30
2018-10-17T08:54:47.646Z,954.30
2018-10-17T08:55:45.849Z,954.29
2018-10-17T08:58:09.456Z,954.32
2018-10-17T09:02:13.198Z,954.36
2018-10-17T09:07:50.801Z,954.33
2018-10-17T09:08:51.561Z,954.34
2018-10-17T09:09:52.062Z,954.33
2018-10-17T09:10:51.527Z,954.28
2018-10-17T09:11:50.396Z,954.33
2018-10-17T09:12:51.050Z,954.29
2018-10-17T09:13:50.424Z,954.30
2018-10-17T09:14:50.382Z,954.30
2018-10-17T09:15:50.363Z,954.28
2018-10-17T09:16:50.667Z,954.27
2018-10-17T09:17:54.145Z,954.28
2018-10-17T09:18:58.203Z,954.30
2018-10-17T09:36:52.800Z,954.32
2018-10-17T09:41:17.308Z,954.31
2018-10-17T10:14:20.342Z,954.13
2018-10-17T10:15:20.230Z,954.12
2018-10-17T10:16:18.609Z,954.16
2018-10-17T10:18:21.381Z,954.17
2018-10-17T10:18:29.553Z,954.11
2018-10-17T10:19:32.442Z,954.13
2018-10-17T10:23:54.439Z,954.10
2018-10-17T10:24:53.227Z,954.06
2018-10-17T10:25:53.993Z,954.03
2018-10-17T10:30:39.625Z,954.08
2018-10-17T10:31:38.249Z,954.03
2018-10-17T10:32:37.856Z,954.03
2018-10-17T10:45:09.408Z,953.99
2018-10-17T10:48:45.305Z,953.93
2018-10-17T10:49:20.377Z,953.92
2018-10-17T10:51:41.476Z,953.90
2018-10-17T10:56:21.076Z,953.84
2018-10-17T10:58:10.135Z,953.82
2018-10-17T10:58:15.418Z,953.84
2018-10-17T10:59:26.232Z,953.83
2018-10-17T11:01:34.661Z,953.77
2018-10-17T11:02:35.982Z,953.81
2018-10-17T11:05:18.853Z,953.74
2018-10-17T11:06:17.790Z,953.77
2018-10-17T11:07:17.742Z,953.80
2018-10-17T11:08:16.910Z,953.73
2018-10-17T11:15:30.622Z,953.69
2018-10-17T11:16:01.403Z,953.71
2018-10-17T11:17:01.479Z,953.68
2018-10-17T11:18:02.499Z,953.64
2018-10-17T11:19:02.104Z,953.66
2018-10-17T11:20:03.221Z,953.68
2018-10-17T11:21:05.197Z,953.69
2018-10-17T11:22:05.355Z,953.68
2018-10-17T11:23:02.417Z,953.71
2018-10-17T11:24:03.028Z,953.65
2018-10-17T11:25:02.335Z,953.68
2018-10-17T11:26:01.360Z,953.65
2018-10-17T11:33:51.481Z,953.58
2018-10-17T11:34:51.963Z,953.56
2018-10-17T11:35:51.174Z,953.59
2018-10-17T11:37:12.967Z,953.56
2018-10-17T11:41:29.095Z,953.55
2018-10-17T11:44:16.094Z,953.59
2018-10-17T11:45:17.765Z,953.56
2018-10-17T11:55:25.986Z,953.49
2018-10-17T11:56:25.343Z,953.48
2018-10-17T12:07:49.248Z,953.46
2018-10-17T12:08:47.046Z,953.44
2018-10-17T12:19:35.550Z,953.41
2018-10-17T15:41:19.493Z,953.32
2018-10-17T15:43:47.549Z,953.32
2018-10-17T15:44:09.816Z,953.30
2018-10-17T15:45:09.771Z,953.29
2018-10-17T15:46:10.325Z,953.29
2018-10-17T15:47:09.644Z,953.32
2018-10-17T15:48:09.578Z,953.28
2018-10-17T15:49:09.735Z,953.38
2018-10-17T15:50:09.560Z,953.32
2018-10-17T15:51:09.578Z,953.38
2018-10-17T15:52:10.236Z,953.40
2018-10-17T15:53:09.591Z,953.39
2018-10-17T15:54:10.290Z,953.37
2018-10-17T15:55:09.531Z,953.39
2018-10-17T15:56:09.471Z,953.42
2018-10-17T15:57:09.477Z,953.42
2018-10-17T15:58:31.444Z,953.45
2018-10-17T15:59:09.557Z,953.41
2018-10-17T16:00:09.524Z,953.45
2018-10-17T16:01:09.485Z,953.43
2018-10-17T16:02:09.425Z,953.48
2018-10-17T16:03:09.418Z,953.45
2018-10-17T16:04:09.387Z,953.46
2018-10-17T16:05:09.412Z,953.49
2018-10-17T16:06:09.461Z,953.45
2018-10-17T16:07:09.341Z,953.46
2018-10-17T16:08:09.353Z,953.45
2018-10-17T16:09:09.315Z,953.47
2018-10-17T16:10:09.292Z,953.43
2018-10-17T16:11:09.312Z,953.44
2018-10-17T16:12:09.277Z,953.43
2018-10-17T16:13:09.253Z,953.42
2018-10-17T16:14:09.333Z,953.44
2018-10-17T16:15:09.249Z,953.47
2018-10-17T16:16:09.252Z,953.48
2018-10-17T16:17:09.347Z,953.49
2018-10-17T16:18:09.269Z,953.46
2018-10-17T16:19:09.183Z,953.51
2018-10-17T16:20:09.879Z,953.51
2018-10-17T16:21:09.164Z,953.51
2018-10-17T16:22:09.170Z,953.52
2018-10-17T16:23:09.284Z,953.50
2018-10-17T16:24:09.159Z,953.50
2018-10-17T16:25:09.140Z,953.48
2018-10-17T16:26:09.180Z,953.45
2018-10-17T16:27:09.126Z,953.44
2018-10-17T16:28:09.152Z,953.41
2018-10-17T16:29:09.070Z,953.43
2018-10-17T16:30:09.129Z,953.44
2018-10-17T16:31:09.171Z,953.45
2018-10-17T16:32:09.149Z,953.49
2018-10-17T16:33:09.049Z,953.52
2018-10-17T16:34:09.039Z,953.52
2018-10-17T16:35:09.016Z,953.57
2018-10-17T16:36:09.375Z,953.58
2018-10-17T16:37:09.002Z,953.58
2018-10-17T16:38:09.010Z,953.59
2018-10-17T16:39:09.058Z,953.61
2018-10-17T16:40:09.066Z,953.65
2018-10-17T16:41:09.985Z,953.64
2018-10-17T16:42:09.184Z,953.69
2018-10-17T16:43:15.886Z,953.63
2018-10-17T16:44:09.102Z,953.64
2018-10-17T16:45:20.123Z,953.66
2018-10-17T16:46:20.935Z,953.67
2018-10-17T16:47:09.712Z,953.67
2018-10-17T16:48:22.088Z,953.67
2018-10-17T16:49:09.650Z,953.65
2018-10-17T16:50:10.180Z,953.68
2018-10-17T16:51:09.168Z,953.70
2018-10-17T16:52:08.892Z,953.69
2018-10-17T16:53:09.871Z,953.69
2018-10-17T16:54:08.913Z,953.67
2018-10-17T16:55:08.904Z,953.71
2018-10-17T16:56:08.806Z,953.74
2018-10-17T16:58:23.158Z,953.74
2018-10-17T16:59:24.139Z,953.80
2018-10-17T17:01:42.056Z,953.81
2018-10-17T17:02:42.107Z,953.81
2018-10-17T17:05:08.015Z,953.81
2018-10-17T17:07:44.294Z,953.81
2018-10-17T17:08:44.142Z,953.87
2018-10-17T17:09:44.326Z,953.87
2018-10-17T17:12:03.908Z,953.86
2018-10-17T17:14:41.899Z,953.87
2018-10-17T17:15:19.340Z,953.89
2018-10-17T17:16:18.980Z,953.91
2018-10-17T17:17:19.913Z,953.93
2018-10-17T17:18:19.884Z,953.91
2018-10-17T17:19:18.902Z,953.90
2018-10-17T17:21:49.090Z,953.92
2018-10-17T17:22:48.734Z,953.96
2018-10-17T17:23:48.633Z,953.94
2018-10-17T17:24:48.416Z,953.91
2018-10-17T17:25:48.908Z,953.90
2018-10-17T17:26:48.286Z,953.97
2018-10-17T17:27:48.259Z,953.98
2018-10-17T17:29:09.245Z,953.95
2018-10-17T17:29:48.270Z,953.96
2018-10-17T17:30:59.227Z,953.96
2018-10-17T17:31:48.608Z,953.96
2018-10-17T17:32:48.773Z,953.96
2018-10-17T17:35:14.077Z,953.98
2018-10-17T17:36:14.316Z,953.92
2018-10-17T17:37:14.159Z,953.98
2018-10-17T17:38:13.602Z,953.94
2018-10-17T17:39:13.443Z,953.98
2018-10-17T17:40:13.974Z,953.98
2018-10-17T17:41:13.335Z,954.01
2018-10-17T17:42:13.362Z,953.97
2018-10-17T17:43:48.609Z,953.98
2018-10-17T17:44:13.356Z,953.95
2018-10-17T17:45:13.322Z,953.99
2018-10-17T17:46:37.190Z,953.98
2018-10-17T17:47:14.172Z,953.99
2018-10-17T17:48:39.186Z,954.00
2018-10-17T17:50:35.151Z,953.92
2018-10-17T17:51:34.487Z,953.97
2018-10-17T17:52:35.285Z,953.94
2018-10-17T17:53:34.209Z,953.90
2018-10-17T17:54:34.211Z,953.92
2018-10-17T17:55:34.080Z,953.91
2018-10-17T17:56:34.202Z,953.95
2018-10-17T17:57:34.103Z,953.88
2018-10-17T17:58:34.163Z,953.90
2018-10-17T17:59:34.063Z,953.91
2018-10-17T18:00:34.060Z,953.91
2018-10-17T18:01:50.705Z,953.92
2018-10-17T18:02:43.683Z,953.88
2018-10-17T18:03:34.734Z,953.90
2018-10-17T18:04:34.115Z,953.91
2018-10-17T18:05:35.956Z,953.95
2018-10-17T18:06:35.059Z,954.00
2018-10-17T18:07:34.967Z,953.97
2018-10-17T18:08:34.968Z,954.01
2018-10-17T18:09:33.924Z,954.01
2018-10-17T18:10:33.969Z,954.01
2018-10-17T18:11:33.943Z,954.01
2018-10-17T18:12:34.030Z,954.03
2018-10-17T18:15:34.578Z,954.04
2018-10-17T18:16:05.453Z,954.04
2018-10-17T18:17:30.509Z,954.03
2018-10-17T18:19:32.988Z,954.05
2018-10-17T18:20:32.452Z,954.12
2018-10-17T18:21:33.079Z,954.10
2018-10-17T18:22:32.376Z,954.09
2018-10-17T18:23:43.235Z,954.09
2018-10-17T18:24:32.658Z,954.09
2018-10-17T18:25:32.682Z,954.11
2018-10-17T18:26:32.666Z,954.10
2018-10-17T18:27:44.306Z,954.11
2018-10-17T18:30:06.737Z,954.20
2018-10-17T18:33:27.938Z,954.19
2018-10-17T18:34:40.963Z,954.18
2018-10-17T18:35:28.907Z,954.16
2018-10-17T18:36:42.565Z,954.15
2018-10-17T18:38:54.749Z,954.16
2018-10-17T18:42:32.370Z,954.18
2018-10-17T18:54:01.999Z,954.22
2018-10-17T18:55:04.215Z,954.21
2018-10-17T19:03:56.845Z,954.25
2018-10-17T19:07:45.561Z,954.26
2018-10-17T19:11:56.624Z,954.28
2018-10-17T19:19:06.440Z,954.33
2018-10-17T19:22:11.062Z,954.28
2018-10-17T19:25:19.313Z,954.30
2018-10-17T19:26:18.171Z,954.31
2018-10-17T19:27:25.318Z,954.31
2018-10-17T19:34:10.518Z,954.37
2018-10-17T19:35:07.885Z,954.34
2018-10-17T19:35:57.473Z,954.36
2018-10-17T19:37:14.704Z,954.32
2018-10-17T19:52:35.482Z,954.31
2018-10-17T19:57:39.608Z,954.31
2018-10-17T20:00:57.991Z,954.33
2018-10-17T20:03:21.787Z,954.28
2018-10-17T20:04:22.551Z,954.28
2018-10-17T20:07:08.495Z,954.26
2018-10-17T20:08:09.515Z,954.35
2018-10-17T20:16:27.635Z,954.28
2018-10-17T20:18:54.168Z,954.30
2018-10-17T20:19:54.756Z,954.30
2018-10-17T20:20:54.966Z,954.29
2018-10-17T20:23:45.449Z,954.31
2018-10-17T20:24:39.312Z,954.31
2018-10-17T20:25:48.343Z,954.31
2018-10-17T20:27:04.433Z,954.31
2018-10-17T20:27:40.308Z,954.30
2018-10-17T20:32:01.878Z,954.32
2018-10-17T20:32:18.670Z,954.30
2018-10-17T20:33:18.704Z,954.32
2018-10-17T20:37:50.687Z,954.29
2018-10-17T20:38:52.502Z,954.23
2018-10-17T20:39:50.518Z,954.26
2018-10-17T20:42:19.519Z,954.26
2018-10-17T20:47:30.821Z,954.27
2018-10-17T20:49:57.769Z,954.24
2018-10-17T20:50:58.481Z,954.26
2018-10-17T20:51:57.111Z,954.25
2018-10-17T20:53:18.762Z,954.23
2018-10-17T20:53:56.444Z,954.22
2018-10-17T20:54:56.710Z,954.22
2018-10-17T20:55:56.405Z,954.20
2018-10-17T20:56:56.228Z,954.27
2018-10-17T20:58:07.890Z,954.23
2018-10-17T20:59:07.429Z,954.24
2018-10-17T21:00:04.940Z,954.26
2018-10-17T21:00:56.374Z,954.30
2018-10-17T21:02:07.049Z,954.24
2018-10-17T21:02:56.353Z,954.28
2018-10-17T21:03:56.401Z,954.27
2018-10-17T21:05:05.849Z,954.32
2018-10-17T21:05:56.303Z,954.32
2018-10-17T21:06:56.218Z,954.35
2018-10-17T21:07:56.223Z,954.34
2018-10-17T21:09:06.259Z,954.34
2018-10-17T21:11:07.581Z,954.30
2018-10-17T21:12:07.894Z,954.38
2018-10-17T21:13:17.818Z,954.38
2018-10-17T21:14:17.165Z,954.37
2018-10-17T21:15:07.354Z,954.36
2018-10-17T21:16:07.853Z,954.43
2018-10-17T21:17:20.288Z,954.38
2018-10-17T21:18:07.576Z,954.40
2018-10-17T21:19:18.334Z,954.40
2018-10-17T21:20:18.064Z,954.39
2018-10-17T21:21:07.703Z,954.41
2018-10-17T21:22:07.724Z,954.40
2018-10-17T21:23:07.777Z,954.46
2018-10-17T21:24:08.230Z,954.44
2018-10-17T21:25:07.190Z,954.46
2018-10-17T21:26:18.052Z,954.46
2018-10-17T21:27:07.437Z,954.39
2018-10-17T21:28:08.179Z,954.46
2018-10-17T21:29:07.189Z,954.42
2018-10-17T21:30:07.225Z,954.39
2018-10-17T21:32:20.952Z,954.42
2018-10-17T21:33:30.697Z,954.41
2018-10-17T21:34:22.107Z,954.38
2018-10-17T21:35:21.939Z,954.33
2018-10-17T21:36:21.129Z,954.34
2018-10-17T21:37:20.590Z,954.34
2018-10-17T21:38:20.641Z,954.29
2018-10-17T21:39:20.643Z,954.30
2018-10-17T21:40:39.805Z,954.37
2018-10-17T21:41:28.308Z,954.32
2018-10-17T21:42:20.496Z,954.34
2018-10-17T21:44:41.265Z,954.29
2018-10-17T21:45:41.020Z,954.32
2018-10-17T21:46:40.931Z,954.37
2018-10-17T21:48:54.396Z,954.33
2018-10-17T21:49:54.403Z,954.28
2018-10-17T21:50:53.888Z,954.30
2018-10-17T21:51:54.672Z,954.27
2018-10-17T21:52:53.762Z,954.29
2018-10-17T21:53:53.721Z,954.27
2018-10-17T21:54:53.745Z,954.28
2018-10-17T21:55:53.800Z,954.26
2018-10-17T21:56:54.673Z,954.26
2018-10-17T21:57:54.703Z,954.28
2018-10-17T21:58:53.668Z,954.24
2018-10-17T21:59:53.667Z,954.24
2018-10-17T22:00:53.686Z,954.22
2018-10-17T22:01:53.689Z,954.22
2018-10-17T22:02:53.622Z,954.25
2018-10-17T22:03:53.668Z,954.21
2018-10-17T22:04:54.177Z,954.24
2018-10-17T22:05:54.683Z,954.19
2018-10-17T22:06:54.584Z,954.23
2018-10-17T22:07:53.624Z,954.21
2018-10-17T22:08:53.634Z,954.22
2018-10-17T22:09:54.628Z,954.19
2018-10-17T22:10:53.606Z,954.19
2018-10-17T22:12:04.787Z,954.20
2018-10-17T22:13:04.368Z,954.18
2018-10-17T22:13:53.775Z,954.20
2018-10-17T22:15:14.749Z,954.18
2018-10-17T22:17:05.908Z,954.15
2018-10-17T22:18:05.956Z,954.15
2018-10-17T22:19:05.740Z,954.16
2018-10-17T22:20:05.855Z,954.09
2018-10-17T22:21:05.641Z,954.12
2018-10-17T22:22:05.636Z,954.12
2018-10-17T22:23:16.207Z,954.11
2018-10-17T22:24:05.697Z,954.12
2018-10-17T22:25:05.764Z,954.14
2018-10-17T22:26:05.699Z,954.16
2018-10-17T22:27:05.855Z,954.10
2018-10-17T22:28:05.524Z,954.14
2018-10-17T22:29:26.520Z,954.11
2018-10-17T22:30:06.599Z,954.13
2018-10-17T22:31:17.833Z,954.10
2018-10-17T22:32:05.942Z,954.10
2018-10-17T22:33:05.625Z,954.13
2018-10-17T22:34:05.516Z,954.04
2018-10-17T22:35:05.890Z,954.09
2018-10-17T22:36:05.473Z,954.05
2018-10-17T22:37:06.374Z,954.09
2018-10-17T22:38:05.488Z,954.09
2018-10-17T22:39:15.033Z,954.09
2018-10-17T22:40:05.486Z,954.08
2018-10-17T22:41:05.552Z,954.08
2018-10-17T22:42:05.440Z,954.07
2018-10-17T22:43:05.676Z,954.08
2018-10-17T22:45:19.019Z,954.05
2018-10-17T22:46:18.893Z,954.06
2018-10-17T22:47:18.896Z,954.07
2018-10-17T22:48:31.021Z,954.03
2018-10-17T22:49:19.229Z,954.00
2018-10-17T22:50:19.079Z,954.04
2018-10-17T22:51:18.883Z,954.06
2018-10-17T22:52:19.178Z,954.08
2018-10-17T22:53:18.791Z,954.05
2018-10-17T22:55:39.110Z,954.11
2018-10-17T22:56:39.223Z,954.05
2018-10-17T22:57:39.095Z,954.04
2018-10-17T22:58:39.203Z,954.08
2018-10-17T23:00:52.658Z,954.11
2018-10-17T23:03:05.643Z,954.08
2018-10-17T23:04:05.574Z,954.08
2018-10-17T23:05:05.459Z,954.08
2018-10-17T23:06:05.870Z,954.05
2018-10-17T23:07:05.282Z,954.10
2018-10-17T23:08:05.325Z,954.07
2018-10-17T23:09:14.935Z,954.04
2018-10-17T23:10:05.483Z,954.05
2018-10-17T23:11:05.388Z,954.04
2018-10-17T23:12:05.515Z,954.07
2018-10-17T23:13:05.210Z,954.06
2018-10-17T23:14:26.261Z,954.07
2018-10-17T23:15:05.232Z,954.04
2018-10-17T23:16:15.774Z,954.08
2018-10-17T23:17:06.311Z,954.07
2018-10-17T23:18:15.730Z,954.08
2018-10-17T23:19:05.315Z,954.11
2018-10-17T23:20:05.391Z,954.13
2018-10-17T23:21:05.365Z,954.09
2018-10-17T23:22:05.321Z,954.10
2018-10-17T23:23:05.133Z,954.07
2018-10-17T23:24:05.123Z,954.11
2018-10-17T23:25:05.032Z,954.11
2018-10-17T23:26:06.011Z,954.14
2018-10-17T23:27:05.033Z,954.13
2018-10-17T23:28:15.665Z,954.13
2018-10-17T23:30:22.933Z,954.10
2018-10-17T23:31:32.060Z,954.05
2018-10-17T23:32:23.635Z,954.08
2018-10-17T23:33:23.517Z,954.09
2018-10-17T23:34:22.566Z,954.08
2018-10-17T23:35:23.506Z,954.06
2018-10-17T23:36:22.483Z,954.08
2018-10-17T23:37:23.468Z,954.10
2018-10-17T23:38:22.527Z,954.12
2018-10-17T23:39:22.480Z,954.11
2018-10-17T23:40:22.489Z,954.07
2018-10-17T23:41:22.455Z,954.11
2018-10-17T23:42:32.504Z,954.10
2018-10-17T23:43:22.785Z,954.11
2018-10-17T23:44:48.374Z,954.15
2018-10-17T23:45:22.664Z,954.10
2018-10-17T23:46:22.465Z,954.11
2018-10-17T23:47:33.004Z,954.11
2018-10-17T23:48:23.493Z,954.10
2018-10-17T23:49:23.450Z,954.07
2018-10-17T23:50:22.375Z,954.04
2018-10-17T23:51:22.466Z,954.04
2018-10-17T23:52:24.027Z,954.02
2018-10-17T23:53:24.235Z,954.04
2018-10-17T23:54:23.578Z,954.03
2018-10-17T23:55:22.305Z,954.10
2018-10-17T23:56:22.304Z,954.02
2018-10-17T23:57:22.429Z,954.03
2018-10-17T23:58:22.523Z,954.04
2018-10-17T23:59:27.686Z,954.08
